sensor_id;sensor_type;location;lat;lon;timestamp;P1;durP1;ratioP1;P2;durP2;ratioP2
48859;SDS011;34679;51.436;-2.518;2023-12-20T00:01:32;22.98;;;3.33;;
48859;SDS011;34679;51.436;-2.518;2023-12-20T00:03:58;26.45;;;3.55;;
48859;SDS011;34679;51.436;-2.518;2023-12-20T00:06:24;25.67;;;2.90;;
48859;SDS011;34679;51.436;-2.518;2023-12-20T00:08:50;18.63;;;3.17;;
48859;SDS011;34679;51.436;-2.518;2023-12-20T00:11:16;20.63;;;3.55;;
48859;SDS011;34679;51.436;-2.518;2023-12-20T00:13:41;23.67;;;4.45;;
48859;SDS011;34679;51.436;-2.518;2023-12-20T00:16:09;31.25;;;4.97;;
48859;SDS011;34679;51.436;-2.518;2023-12-20T00:18:34;19.45;;;2.90;;
48859;SDS011;34679;51.436;-2.518;2023-12-20T00:21:00;19.08;;;4.10;;
48859;SDS011;34679;51.436;-2.518;2023-12-20T00:23:26;15.35;;;2.80;;
48859;SDS011;34679;51.436;-2.518;2023-12-20T00:25:52;28.02;;;4.97;;
48859;SDS011;34679;51.436;-2.518;2023-12-20T00:28:17;21.38;;;3.88;;
48859;SDS011;34679;51.436;-2.518;2023-12-20T00:30:45;23.65;;;3.63;;
48859;SDS011;34679;51.436;-2.518;2023-12-20T00:33:10;20.88;;;3.13;;
48859;SDS011;34679;51.436;-2.518;2023-12-20T00:35:36;29.05;;;3.53;;
48859;SDS011;34679;51.436;-2.518;2023-12-20T00:38:02;21.92;;;4.00;;
48859;SDS011;34679;51.436;-2.518;2023-12-20T00:40:28;19.42;;;3.05;;
48859;SDS011;34679;51.436;-2.518;2023-12-20T00:48:04;26.13;;;3.15;;
48859;SDS011;34679;51.436;-2.518;2023-12-20T04:33:56;20.83;;;3.17;;
48859;SDS011;34679;51.436;-2.518;2023-12-20T04:36:22;25.27;;;4.80;;
48859;SDS011;34679;51.436;-2.518;2023-12-20T04:54:30;18.73;;;3.08;;
48859;SDS011;34679;51.436;-2.518;2023-12-20T04:56:56;27.13;;;3.72;;
48859;SDS011;34679;51.436;-2.518;2023-12-20T04:59:21;23.17;;;3.35;;
48859;SDS011;34679;51.436;-2.518;2023-12-20T05:01:47;30.50;;;4.93;;
48859;SDS011;34679;51.436;-2.518;2023-12-20T05:04:13;28.17;;;3.72;;
48859;SDS011;34679;51.436;-2.518;2023-12-20T05:06:38;21.65;;;3.20;;
48859;SDS011;34679;51.436;-2.518;2023-12-20T05:09:04;23.35;;;3.53;;
48859;SDS011;34679;51.436;-2.518;2023-12-20T05:11:30;21.15;;;3.97;;
48859;SDS011;34679;51.436;-2.518;2023-12-20T05:13:55;19.23;;;3.13;;
48859;SDS011;34679;51.436;-2.518;2023-12-20T05:16:21;24.58;;;3.65;;
48859;SDS011;34679;51.436;-2.518;2023-12-20T05:18:47;28.08;;;3.40;;
48859;SDS011;34679;51.436;-2.518;2023-12-20T05:21:14;16.20;;;2.97;;
48859;SDS011;34679;51.436;-2.518;2023-12-20T05:23:40;18.30;;;2.90;;
48859;SDS011;34679;51.436;-2.518;2023-12-20T05:26:05;15.00;;;3.15;;
48859;SDS011;34679;51.436;-2.518;2023-12-20T05:28:31;20.40;;;2.88;;
48859;SDS011;34679;51.436;-2.518;2023-12-20T05:30:57;17.95;;;2.95;;
48859;SDS011;34679;51.436;-2.518;2023-12-20T05:33:23;28.27;;;3.83;;
48859;SDS011;34679;51.436;-2.518;2023-12-20T05:35:49;24.38;;;4.38;;
48859;SDS011;34679;51.436;-2.518;2023-12-20T05:38:15;32.30;;;3.20;;
48859;SDS011;34679;51.436;-2.518;2023-12-20T05:40:41;22.92;;;2.83;;
48859;SDS011;34679;51.436;-2.518;2023-12-20T05:43:07;22.33;;;3.38;;
48859;SDS011;34679;51.436;-2.518;2023-12-20T05:45:33;30.83;;;4.50;;
48859;SDS011;34679;51.436;-2.518;2023-12-20T05:47:59;19.35;;;3.08;;
48859;SDS011;34679;51.436;-2.518;2023-12-20T05:50:25;21.13;;;2.78;;
48859;SDS011;34679;51.436;-2.518;2023-12-20T05:52:50;25.35;;;3.70;;
48859;SDS011;34679;51.436;-2.518;2023-12-20T05:55:16;18.83;;;3.03;;
48859;SDS011;34679;51.436;-2.518;2023-12-20T05:57:42;30.35;;;4.85;;
48859;SDS011;34679;51.436;-2.518;2023-12-20T06:00:08;21.27;;;3.47;;
48859;SDS011;34679;51.436;-2.518;2023-12-20T06:02:34;21.08;;;2.90;;
48859;SDS011;34679;51.436;-2.518;2023-12-20T06:05:02;27.35;;;3.55;;
48859;SDS011;34679;51.436;-2.518;2023-12-20T06:07:29;17.67;;;3.15;;
48859;SDS011;34679;51.436;-2.518;2023-12-20T06:09:55;18.48;;;2.72;;
48859;SDS011;34679;51.436;-2.518;2023-12-20T06:12:20;19.05;;;2.67;;
48859;SDS011;34679;51.436;-2.518;2023-12-20T06:14:46;20.08;;;2.70;;
48859;SDS011;34679;51.436;-2.518;2023-12-20T06:17:12;20.73;;;2.40;;
48859;SDS011;34679;51.436;-2.518;2023-12-20T06:19:37;24.63;;;2.88;;
48859;SDS011;34679;51.436;-2.518;2023-12-20T06:29:49;18.75;;;2.80;;
48859;SDS011;34679;51.436;-2.518;2023-12-20T06:32:15;21.17;;;3.17;;
48859;SDS011;34679;51.436;-2.518;2023-12-20T06:34:40;19.25;;;3.67;;
48859;SDS011;34679;51.436;-2.518;2023-12-20T06:37:06;19.02;;;3.30;;
48859;SDS011;34679;51.436;-2.518;2023-12-20T06:39:32;22.08;;;3.50;;
48859;SDS011;34679;51.436;-2.518;2023-12-20T06:41:59;22.20;;;2.42;;
48859;SDS011;34679;51.436;-2.518;2023-12-20T06:44:24;15.88;;;2.90;;
48859;SDS011;34679;51.436;-2.518;2023-12-20T06:52:28;21.45;;;3.33;;
48859;SDS011;34679;51.436;-2.518;2023-12-20T06:54:54;15.63;;;2.47;;
48859;SDS011;34679;51.436;-2.518;2023-12-20T06:57:19;20.92;;;3.33;;
48859;SDS011;34679;51.436;-2.518;2023-12-20T06:59:45;17.00;;;2.78;;
48859;SDS011;34679;51.436;-2.518;2023-12-20T07:07:21;19.92;;;2.35;;
48859;SDS011;34679;51.436;-2.518;2023-12-20T07:09:49;13.20;;;2.40;;
48859;SDS011;34679;51.436;-2.518;2023-12-20T07:12:15;17.83;;;2.72;;
48859;SDS011;34679;51.436;-2.518;2023-12-20T07:14:40;22.45;;;3.78;;
48859;SDS011;34679;51.436;-2.518;2023-12-20T07:17:06;13.75;;;2.40;;
48859;SDS011;34679;51.436;-2.518;2023-12-20T07:19:36;18.20;;;2.65;;
48859;SDS011;34679;51.436;-2.518;2023-12-20T07:22:03;15.07;;;2.28;;
48859;SDS011;34679;51.436;-2.518;2023-12-20T07:24:29;14.07;;;2.60;;
48859;SDS011;34679;51.436;-2.518;2023-12-20T07:26:55;14.82;;;2.67;;
48859;SDS011;34679;51.436;-2.518;2023-12-20T07:29:21;18.60;;;2.58;;
48859;SDS011;34679;51.436;-2.518;2023-12-20T07:31:46;17.08;;;3.03;;
48859;SDS011;34679;51.436;-2.518;2023-12-20T07:34:12;27.38;;;3.38;;
48859;SDS011;34679;51.436;-2.518;2023-12-20T07:36:37;16.58;;;2.67;;
48859;SDS011;34679;51.436;-2.518;2023-12-20T07:39:03;13.60;;;3.28;;
48859;SDS011;34679;51.436;-2.518;2023-12-20T07:41:29;10.43;;;2.25;;
48859;SDS011;34679;51.436;-2.518;2023-12-20T07:43:54;15.75;;;2.55;;
48859;SDS011;34679;51.436;-2.518;2023-12-20T07:46:21;20.20;;;3.17;;
48859;SDS011;34679;51.436;-2.518;2023-12-20T07:48:50;16.50;;;2.42;;
48859;SDS011;34679;51.436;-2.518;2023-12-20T07:51:15;16.38;;;2.63;;
48859;SDS011;34679;51.436;-2.518;2023-12-20T07:53:41;17.10;;;2.35;;
48859;SDS011;34679;51.436;-2.518;2023-12-20T07:56:16;17.08;;;2.22;;
48859;SDS011;34679;51.436;-2.518;2023-12-20T07:58:43;20.40;;;2.47;;
48859;SDS011;34679;51.436;-2.518;2023-12-20T08:01:10;19.55;;;3.38;;
48859;SDS011;34679;51.436;-2.518;2023-12-20T08:03:36;17.65;;;2.88;;
48859;SDS011;34679;51.436;-2.518;2023-12-20T08:06:03;16.75;;;2.15;;
48859;SDS011;34679;51.436;-2.518;2023-12-20T08:08:29;26.77;;;3.92;;
48859;SDS011;34679;51.436;-2.518;2023-12-20T08:10:55;13.45;;;2.30;;
48859;SDS011;34679;51.436;-2.518;2023-12-20T08:13:22;19.00;;;2.60;;
48859;SDS011;34679;51.436;-2.518;2023-12-20T08:15:51;19.85;;;3.85;;
48859;SDS011;34679;51.436;-2.518;2023-12-20T08:18:17;11.93;;;2.10;;
48859;SDS011;34679;51.436;-2.518;2023-12-20T08:20:43;15.45;;;2.00;;
48859;SDS011;34679;51.436;-2.518;2023-12-20T08:23:08;16.70;;;2.30;;
48859;SDS011;34679;51.436;-2.518;2023-12-20T08:25:34;18.35;;;2.97;;
48859;SDS011;34679;51.436;-2.518;2023-12-20T08:28:01;20.73;;;2.45;;
48859;SDS011;34679;51.436;-2.518;2023-12-20T08:30:28;12.45;;;2.00;;
48859;SDS011;34679;51.436;-2.518;2023-12-20T08:32:54;19.38;;;3.17;;
48859;SDS011;34679;51.436;-2.518;2023-12-20T08:41:03;16.30;;;2.00;;
48859;SDS011;34679;51.436;-2.518;2023-12-20T08:43:39;14.02;;;1.92;;
48859;SDS011;34679;51.436;-2.518;2023-12-20T08:46:07;21.33;;;3.35;;
48859;SDS011;34679;51.436;-2.518;2023-12-20T08:48:34;15.65;;;2.38;;
48859;SDS011;34679;51.436;-2.518;2023-12-20T08:51:00;13.27;;;2.22;;
48859;SDS011;34679;51.436;-2.518;2023-12-20T08:53:26;9.70;;;2.05;;
48859;SDS011;34679;51.436;-2.518;2023-12-20T08:55:52;22.08;;;2.75;;
48859;SDS011;34679;51.436;-2.518;2023-12-20T08:58:17;12.77;;;1.63;;
48859;SDS011;34679;51.436;-2.518;2023-12-20T09:00:43;13.15;;;2.08;;
48859;SDS011;34679;51.436;-2.518;2023-12-20T09:03:09;13.20;;;2.45;;
48859;SDS011;34679;51.436;-2.518;2023-12-20T09:05:34;16.35;;;2.10;;
48859;SDS011;34679;51.436;-2.518;2023-12-20T09:08:00;19.17;;;2.53;;
48859;SDS011;34679;51.436;-2.518;2023-12-20T09:10:26;15.50;;;3.50;;
48859;SDS011;34679;51.436;-2.518;2023-12-20T09:12:52;9.02;;;1.83;;
48859;SDS011;34679;51.436;-2.518;2023-12-20T09:15:21;16.85;;;1.95;;
48859;SDS011;34679;51.436;-2.518;2023-12-20T09:17:50;14.48;;;2.20;;
48859;SDS011;34679;51.436;-2.518;2023-12-20T09:20:16;14.75;;;3.00;;
48859;SDS011;34679;51.436;-2.518;2023-12-20T09:22:42;11.82;;;2.58;;
48859;SDS011;34679;51.436;-2.518;2023-12-20T09:25:09;16.83;;;2.75;;
48859;SDS011;34679;51.436;-2.518;2023-12-20T09:27:35;14.95;;;1.92;;
48859;SDS011;34679;51.436;-2.518;2023-12-20T09:30:01;21.88;;;3.30;;
48859;SDS011;34679;51.436;-2.518;2023-12-20T09:32:27;13.50;;;2.00;;
48859;SDS011;34679;51.436;-2.518;2023-12-20T09:34:52;12.32;;;2.08;;
48859;SDS011;34679;51.436;-2.518;2023-12-20T09:37:18;9.85;;;1.80;;
48859;SDS011;34679;51.436;-2.518;2023-12-20T09:39:44;12.43;;;1.80;;
48859;SDS011;34679;51.436;-2.518;2023-12-20T09:44:45;12.25;;;2.17;;
48859;SDS011;34679;51.436;-2.518;2023-12-20T09:47:11;10.90;;;1.92;;
48859;SDS011;34679;51.436;-2.518;2023-12-20T09:49:38;8.65;;;1.85;;
48859;SDS011;34679;51.436;-2.518;2023-12-20T09:52:06;10.60;;;2.13;;
48859;SDS011;34679;51.436;-2.518;2023-12-20T09:54:34;10.98;;;1.95;;
48859;SDS011;34679;51.436;-2.518;2023-12-20T09:57:00;10.07;;;2.00;;
48859;SDS011;34679;51.436;-2.518;2023-12-20T09:59:26;11.75;;;2.28;;
48859;SDS011;34679;51.436;-2.518;2023-12-20T10:01:51;10.98;;;1.63;;
48859;SDS011;34679;51.436;-2.518;2023-12-20T10:04:21;8.63;;;1.83;;
48859;SDS011;34679;51.436;-2.518;2023-12-20T10:06:47;16.45;;;2.47;;
48859;SDS011;34679;51.436;-2.518;2023-12-20T10:09:13;16.73;;;2.00;;
48859;SDS011;34679;51.436;-2.518;2023-12-20T10:11:39;13.85;;;2.00;;
48859;SDS011;34679;51.436;-2.518;2023-12-20T10:14:05;13.90;;;2.13;;
48859;SDS011;34679;51.436;-2.518;2023-12-20T10:16:32;10.85;;;3.00;;
48859;SDS011;34679;51.436;-2.518;2023-12-20T10:25:11;11.20;;;1.92;;
48859;SDS011;34679;51.436;-2.518;2023-12-20T10:27:37;5.80;;;2.17;;
48859;SDS011;34679;51.436;-2.518;2023-12-20T10:30:03;11.40;;;1.63;;
48859;SDS011;34679;51.436;-2.518;2023-12-20T10:32:29;12.80;;;1.98;;
48859;SDS011;34679;51.436;-2.518;2023-12-20T10:34:56;10.93;;;1.83;;
48859;SDS011;34679;51.436;-2.518;2023-12-20T10:37:22;8.57;;;1.75;;
48859;SDS011;34679;51.436;-2.518;2023-12-20T10:39:49;11.75;;;1.83;;
48859;SDS011;34679;51.436;-2.518;2023-12-20T10:42:17;16.23;;;1.98;;
48859;SDS011;34679;51.436;-2.518;2023-12-20T10:44:46;9.23;;;2.38;;
48859;SDS011;34679;51.436;-2.518;2023-12-20T10:47:12;10.07;;;2.00;;
48859;SDS011;34679;51.436;-2.518;2023-12-20T10:49:38;8.95;;;1.95;;
48859;SDS011;34679;51.436;-2.518;2023-12-20T10:52:05;9.52;;;2.15;;
48859;SDS011;34679;51.436;-2.518;2023-12-20T10:54:31;21.30;;;3.88;;
48859;SDS011;34679;51.436;-2.518;2023-12-20T10:56:58;13.45;;;5.18;;
48859;SDS011;34679;51.436;-2.518;2023-12-20T10:59:25;16.15;;;4.65;;
48859;SDS011;34679;51.436;-2.518;2023-12-20T11:01:54;13.52;;;3.90;;
48859;SDS011;34679;51.436;-2.518;2023-12-20T11:04:28;14.65;;;3.22;;
48859;SDS011;34679;51.436;-2.518;2023-12-20T11:10:18;16.02;;;2.45;;
48859;SDS011;34679;51.436;-2.518;2023-12-20T11:12:57;13.45;;;2.50;;
48859;SDS011;34679;51.436;-2.518;2023-12-20T11:15:34;11.38;;;2.30;;
48859;SDS011;34679;51.436;-2.518;2023-12-20T11:18:01;11.88;;;2.50;;
48859;SDS011;34679;51.436;-2.518;2023-12-20T11:20:46;12.68;;;2.15;;
48859;SDS011;34679;51.436;-2.518;2023-12-20T11:23:11;13.68;;;2.70;;
48859;SDS011;34679;51.436;-2.518;2023-12-20T11:25:48;13.48;;;2.15;;
48859;SDS011;34679;51.436;-2.518;2023-12-20T11:28:20;9.23;;;2.92;;
48859;SDS011;34679;51.436;-2.518;2023-12-20T11:30:47;11.68;;;1.83;;
48859;SDS011;34679;51.436;-2.518;2023-12-20T11:33:23;10.60;;;2.25;;
48859;SDS011;34679;51.436;-2.518;2023-12-20T11:35:50;11.45;;;1.90;;
48859;SDS011;34679;51.436;-2.518;2023-12-20T11:38:16;9.38;;;2.65;;
48859;SDS011;34679;51.436;-2.518;2023-12-20T11:40:44;11.30;;;1.73;;
48859;SDS011;34679;51.436;-2.518;2023-12-20T11:43:30;10.13;;;1.85;;
48859;SDS011;34679;51.436;-2.518;2023-12-20T11:46:02;8.90;;;1.90;;
48859;SDS011;34679;51.436;-2.518;2023-12-20T11:48:30;11.02;;;2.95;;
48859;SDS011;34679;51.436;-2.518;2023-12-20T11:50:56;12.00;;;2.50;;
48859;SDS011;34679;51.436;-2.518;2023-12-20T11:53:22;7.50;;;1.85;;
48859;SDS011;34679;51.436;-2.518;2023-12-20T11:55:51;12.25;;;1.83;;
48859;SDS011;34679;51.436;-2.518;2023-12-20T11:58:17;6.50;;;1.63;;
48859;SDS011;34679;51.436;-2.518;2023-12-20T12:00:42;9.75;;;1.85;;
48859;SDS011;34679;51.436;-2.518;2023-12-20T12:03:08;9.55;;;1.73;;
48859;SDS011;34679;51.436;-2.518;2023-12-20T12:05:35;8.82;;;1.30;;
48859;SDS011;34679;51.436;-2.518;2023-12-20T12:08:03;11.63;;;2.20;;
48859;SDS011;34679;51.436;-2.518;2023-12-20T12:10:30;7.47;;;1.77;;
48859;SDS011;34679;51.436;-2.518;2023-12-20T12:12:56;9.65;;;3.05;;
48859;SDS011;34679;51.436;-2.518;2023-12-20T12:15:22;10.23;;;1.92;;
48859;SDS011;34679;51.436;-2.518;2023-12-20T12:17:54;10.30;;;1.55;;
48859;SDS011;34679;51.436;-2.518;2023-12-20T12:20:21;9.88;;;2.13;;
48859;SDS011;34679;51.436;-2.518;2023-12-20T12:22:56;7.32;;;2.92;;
48859;SDS011;34679;51.436;-2.518;2023-12-20T12:25:26;12.65;;;2.03;;
48859;SDS011;34679;51.436;-2.518;2023-12-20T12:27:55;15.88;;;2.60;;
48859;SDS011;34679;51.436;-2.518;2023-12-20T12:30:21;15.75;;;2.53;;
48859;SDS011;34679;51.436;-2.518;2023-12-20T12:32:47;12.07;;;1.60;;
48859;SDS011;34679;51.436;-2.518;2023-12-20T12:35:13;10.40;;;2.15;;
48859;SDS011;34679;51.436;-2.518;2023-12-20T12:37:39;11.77;;;2.30;;
48859;SDS011;34679;51.436;-2.518;2023-12-20T12:40:07;6.25;;;1.65;;
48859;SDS011;34679;51.436;-2.518;2023-12-20T12:42:37;11.95;;;2.08;;
48859;SDS011;34679;51.436;-2.518;2023-12-20T12:45:03;12.65;;;1.98;;
48859;SDS011;34679;51.436;-2.518;2023-12-20T12:47:29;13.55;;;2.50;;
48859;SDS011;34679;51.436;-2.518;2023-12-20T12:49:56;18.15;;;3.65;;
48859;SDS011;34679;51.436;-2.518;2023-12-20T12:52:22;11.02;;;2.00;;
48859;SDS011;34679;51.436;-2.518;2023-12-20T12:54:48;15.70;;;1.88;;
48859;SDS011;34679;51.436;-2.518;2023-12-20T12:57:14;9.77;;;2.25;;
48859;SDS011;34679;51.436;-2.518;2023-12-20T12:59:43;12.10;;;2.55;;
48859;SDS011;34679;51.436;-2.518;2023-12-20T13:02:11;11.05;;;1.92;;
48859;SDS011;34679;51.436;-2.518;2023-12-20T13:04:40;13.35;;;1.35;;
48859;SDS011;34679;51.436;-2.518;2023-12-20T13:07:07;14.70;;;2.42;;
48859;SDS011;34679;51.436;-2.518;2023-12-20T13:09:35;19.92;;;1.83;;
48859;SDS011;34679;51.436;-2.518;2023-12-20T13:12:01;6.63;;;1.58;;
48859;SDS011;34679;51.436;-2.518;2023-12-20T13:14:29;16.02;;;1.85;;
48859;SDS011;34679;51.436;-2.518;2023-12-20T13:16:57;18.40;;;2.58;;
48859;SDS011;34679;51.436;-2.518;2023-12-20T13:19:23;15.57;;;2.80;;
48859;SDS011;34679;51.436;-2.518;2023-12-20T13:21:49;9.35;;;1.73;;
48859;SDS011;34679;51.436;-2.518;2023-12-20T13:24:15;10.75;;;1.83;;
48859;SDS011;34679;51.436;-2.518;2023-12-20T13:26:40;12.60;;;1.83;;
48859;SDS011;34679;51.436;-2.518;2023-12-20T13:29:06;9.50;;;2.03;;
48859;SDS011;34679;51.436;-2.518;2023-12-20T13:31:32;17.45;;;2.15;;
48859;SDS011;34679;51.436;-2.518;2023-12-20T13:33:58;10.65;;;1.83;;
48859;SDS011;34679;51.436;-2.518;2023-12-20T13:36:23;14.95;;;2.58;;
48859;SDS011;34679;51.436;-2.518;2023-12-20T13:38:49;14.10;;;1.90;;
48859;SDS011;34679;51.436;-2.518;2023-12-20T13:41:15;14.68;;;2.47;;
48859;SDS011;34679;51.436;-2.518;2023-12-20T13:43:40;21.08;;;2.17;;
48859;SDS011;34679;51.436;-2.518;2023-12-20T13:46:07;18.92;;;2.10;;
48859;SDS011;34679;51.436;-2.518;2023-12-20T13:48:34;14.32;;;1.75;;
48859;SDS011;34679;51.436;-2.518;2023-12-20T13:51:00;19.45;;;2.13;;
48859;SDS011;34679;51.436;-2.518;2023-12-20T13:53:27;11.38;;;1.60;;
48859;SDS011;34679;51.436;-2.518;2023-12-20T13:55:53;9.75;;;1.80;;
48859;SDS011;34679;51.436;-2.518;2023-12-20T13:58:19;11.68;;;1.77;;
48859;SDS011;34679;51.436;-2.518;2023-12-20T14:00:45;13.43;;;2.08;;
48859;SDS011;34679;51.436;-2.518;2023-12-20T14:03:11;14.65;;;2.15;;
48859;SDS011;34679;51.436;-2.518;2023-12-20T14:05:37;18.40;;;2.15;;
48859;SDS011;34679;51.436;-2.518;2023-12-20T14:08:02;13.63;;;2.28;;
48859;SDS011;34679;51.436;-2.518;2023-12-20T14:10:28;19.52;;;2.88;;
48859;SDS011;34679;51.436;-2.518;2023-12-20T14:12:55;12.30;;;2.22;;
48859;SDS011;34679;51.436;-2.518;2023-12-20T14:15:20;13.73;;;2.83;;
48859;SDS011;34679;51.436;-2.518;2023-12-20T14:17:46;20.90;;;2.55;;
48859;SDS011;34679;51.436;-2.518;2023-12-20T14:20:12;18.52;;;2.80;;
48859;SDS011;34679;51.436;-2.518;2023-12-20T14:22:38;16.67;;;3.50;;
48859;SDS011;34679;51.436;-2.518;2023-12-20T14:25:10;20.17;;;2.75;;
48859;SDS011;34679;51.436;-2.518;2023-12-20T14:27:37;15.70;;;3.08;;
48859;SDS011;34679;51.436;-2.518;2023-12-20T14:30:04;15.98;;;3.03;;
48859;SDS011;34679;51.436;-2.518;2023-12-20T14:32:31;16.65;;;2.72;;
48859;SDS011;34679;51.436;-2.518;2023-12-20T14:34:57;18.23;;;2.22;;
48859;SDS011;34679;51.436;-2.518;2023-12-20T14:37:23;22.45;;;3.10;;
48859;SDS011;34679;51.436;-2.518;2023-12-20T14:39:51;14.75;;;3.47;;
48859;SDS011;34679;51.436;-2.518;2023-12-20T14:42:16;21.60;;;3.03;;
48859;SDS011;34679;51.436;-2.518;2023-12-20T14:44:42;19.33;;;3.67;;
48859;SDS011;34679;51.436;-2.518;2023-12-20T14:47:08;22.95;;;3.22;;
48859;SDS011;34679;51.436;-2.518;2023-12-20T14:49:34;16.65;;;2.90;;
48859;SDS011;34679;51.436;-2.518;2023-12-20T14:52:00;21.48;;;3.40;;
48859;SDS011;34679;51.436;-2.518;2023-12-20T14:54:26;22.98;;;3.42;;
48859;SDS011;34679;51.436;-2.518;2023-12-20T14:56:52;21.63;;;3.47;;
48859;SDS011;34679;51.436;-2.518;2023-12-20T14:59:18;23.95;;;4.07;;
48859;SDS011;34679;51.436;-2.518;2023-12-20T15:01:44;26.73;;;3.65;;
48859;SDS011;34679;51.436;-2.518;2023-12-20T15:04:09;37.30;;;6.18;;
48859;SDS011;34679;51.436;-2.518;2023-12-20T15:06:35;23.42;;;3.53;;
48859;SDS011;34679;51.436;-2.518;2023-12-20T15:09:01;25.27;;;4.07;;
48859;SDS011;34679;51.436;-2.518;2023-12-20T15:11:29;25.58;;;4.18;;
48859;SDS011;34679;51.436;-2.518;2023-12-20T15:13:58;24.27;;;3.30;;
48859;SDS011;34679;51.436;-2.518;2023-12-20T15:16:25;23.38;;;2.85;;
48859;SDS011;34679;51.436;-2.518;2023-12-20T15:19:08;27.10;;;4.65;;
48859;SDS011;34679;51.436;-2.518;2023-12-20T15:22:00;25.08;;;3.13;;
48859;SDS011;34679;51.436;-2.518;2023-12-20T15:31:10;17.95;;;3.92;;
48859;SDS011;34679;51.436;-2.518;2023-12-20T15:33:37;27.15;;;4.50;;
48859;SDS011;34679;51.436;-2.518;2023-12-20T15:36:03;23.85;;;3.83;;
48859;SDS011;34679;51.436;-2.518;2023-12-20T15:38:29;19.35;;;3.70;;
48859;SDS011;34679;51.436;-2.518;2023-12-20T15:40:55;20.65;;;3.95;;
48859;SDS011;34679;51.436;-2.518;2023-12-20T15:43:20;24.17;;;3.97;;
48859;SDS011;34679;51.436;-2.518;2023-12-20T15:45:46;29.02;;;4.90;;
48859;SDS011;34679;51.436;-2.518;2023-12-20T15:48:12;29.98;;;5.63;;
48859;SDS011;34679;51.436;-2.518;2023-12-20T15:50:42;24.55;;;4.32;;
48859;SDS011;34679;51.436;-2.518;2023-12-20T15:53:08;30.90;;;5.45;;
48859;SDS011;34679;51.436;-2.518;2023-12-20T15:55:34;28.48;;;5.05;;
48859;SDS011;34679;51.436;-2.518;2023-12-20T15:58:00;35.78;;;4.20;;
48859;SDS011;34679;51.436;-2.518;2023-12-20T16:03:10;32.78;;;4.90;;
48859;SDS011;34679;51.436;-2.518;2023-12-20T16:05:36;40.92;;;5.05;;
48859;SDS011;34679;51.436;-2.518;2023-12-20T16:08:02;29.42;;;5.50;;
48859;SDS011;34679;51.436;-2.518;2023-12-20T16:10:28;25.33;;;4.55;;
48859;SDS011;34679;51.436;-2.518;2023-12-20T16:12:54;27.17;;;4.35;;
48859;SDS011;34679;51.436;-2.518;2023-12-20T16:15:20;37.95;;;6.78;;
48859;SDS011;34679;51.436;-2.518;2023-12-20T16:17:46;34.00;;;4.95;;
48859;SDS011;34679;51.436;-2.518;2023-12-20T16:20:12;34.28;;;6.47;;
48859;SDS011;34679;51.436;-2.518;2023-12-20T16:22:38;32.75;;;5.53;;
48859;SDS011;34679;51.436;-2.518;2023-12-20T16:25:05;39.10;;;5.05;;
48859;SDS011;34679;51.436;-2.518;2023-12-20T16:27:31;37.38;;;5.75;;
48859;SDS011;34679;51.436;-2.518;2023-12-20T16:29:58;41.50;;;5.32;;
48859;SDS011;34679;51.436;-2.518;2023-12-20T16:32:25;37.13;;;7.00;;
48859;SDS011;34679;51.436;-2.518;2023-12-20T16:34:51;31.20;;;5.63;;
48859;SDS011;34679;51.436;-2.518;2023-12-20T16:37:17;47.42;;;8.40;;
48859;SDS011;34679;51.436;-2.518;2023-12-20T16:45:32;50.08;;;5.80;;
48859;SDS011;34679;51.436;-2.518;2023-12-20T16:47:58;36.20;;;6.25;;
48859;SDS011;34679;51.436;-2.518;2023-12-20T16:50:24;38.22;;;5.72;;
48859;SDS011;34679;51.436;-2.518;2023-12-20T16:52:49;46.70;;;7.15;;
48859;SDS011;34679;51.436;-2.518;2023-12-20T16:58:12;42.90;;;7.30;;
48859;SDS011;34679;51.436;-2.518;2023-12-20T17:00:38;42.28;;;10.10;;
48859;SDS011;34679;51.436;-2.518;2023-12-20T17:03:07;63.25;;;8.70;;
48859;SDS011;34679;51.436;-2.518;2023-12-20T17:05:32;47.38;;;7.05;;
48859;SDS011;34679;51.436;-2.518;2023-12-20T17:07:58;47.58;;;6.25;;
48859;SDS011;34679;51.436;-2.518;2023-12-20T17:10:24;52.33;;;8.30;;
48859;SDS011;34679;51.436;-2.518;2023-12-20T17:12:50;53.78;;;7.68;;
48859;SDS011;34679;51.436;-2.518;2023-12-20T17:15:15;53.55;;;7.68;;
48859;SDS011;34679;51.436;-2.518;2023-12-20T17:17:41;47.85;;;7.43;;
48859;SDS011;34679;51.436;-2.518;2023-12-20T17:20:07;42.85;;;7.43;;
48859;SDS011;34679;51.436;-2.518;2023-12-20T17:22:33;57.25;;;6.35;;
48859;SDS011;34679;51.436;-2.518;2023-12-20T17:24:59;55.20;;;7.78;;
48859;SDS011;34679;51.436;-2.518;2023-12-20T17:27:25;47.00;;;8.02;;
48859;SDS011;34679;51.436;-2.518;2023-12-20T17:29:50;60.95;;;8.48;;
48859;SDS011;34679;51.436;-2.518;2023-12-20T17:32:16;52.30;;;7.45;;
48859;SDS011;34679;51.436;-2.518;2023-12-20T17:34:42;53.67;;;7.72;;
48859;SDS011;34679;51.436;-2.518;2023-12-20T17:37:07;52.72;;;8.50;;
48859;SDS011;34679;51.436;-2.518;2023-12-20T17:39:33;42.22;;;6.40;;
48859;SDS011;34679;51.436;-2.518;2023-12-20T17:41:59;51.50;;;8.13;;
48859;SDS011;34679;51.436;-2.518;2023-12-20T17:44:25;50.35;;;7.32;;
48859;SDS011;34679;51.436;-2.518;2023-12-20T17:46:50;50.47;;;7.47;;
48859;SDS011;34679;51.436;-2.518;2023-12-20T17:49:16;57.80;;;8.32;;
48859;SDS011;34679;51.436;-2.518;2023-12-20T17:51:45;47.33;;;8.15;;
48859;SDS011;34679;51.436;-2.518;2023-12-20T17:54:12;57.67;;;7.13;;
48859;SDS011;34679;51.436;-2.518;2023-12-20T17:56:37;57.88;;;8.10;;
48859;SDS011;34679;51.436;-2.518;2023-12-20T17:59:03;50.72;;;8.15;;
48859;SDS011;34679;51.436;-2.518;2023-12-20T18:01:29;42.33;;;7.38;;
48859;SDS011;34679;51.436;-2.518;2023-12-20T18:03:55;45.70;;;8.88;;
48859;SDS011;34679;51.436;-2.518;2023-12-20T18:06:21;46.55;;;7.65;;
48859;SDS011;34679;51.436;-2.518;2023-12-20T18:15:01;54.00;;;8.50;;
48859;SDS011;34679;51.436;-2.518;2023-12-20T18:17:28;55.15;;;8.73;;
48859;SDS011;34679;51.436;-2.518;2023-12-20T18:19:53;50.88;;;9.70;;
48859;SDS011;34679;51.436;-2.518;2023-12-20T18:22:19;57.53;;;8.68;;
48859;SDS011;34679;51.436;-2.518;2023-12-20T18:24:45;66.07;;;10.20;;
48859;SDS011;34679;51.436;-2.518;2023-12-20T18:27:10;62.65;;;8.35;;
48859;SDS011;34679;51.436;-2.518;2023-12-20T18:29:36;45.70;;;7.38;;
48859;SDS011;34679;51.436;-2.518;2023-12-20T18:32:02;51.30;;;7.70;;
48859;SDS011;34679;51.436;-2.518;2023-12-20T18:34:28;54.70;;;7.72;;
48859;SDS011;34679;51.436;-2.518;2023-12-20T18:36:54;57.30;;;9.18;;
48859;SDS011;34679;51.436;-2.518;2023-12-20T18:39:20;56.33;;;9.65;;
48859;SDS011;34679;51.436;-2.518;2023-12-20T18:41:46;54.05;;;8.63;;
48859;SDS011;34679;51.436;-2.518;2023-12-20T18:44:15;54.95;;;8.60;;
48859;SDS011;34679;51.436;-2.518;2023-12-20T18:46:42;52.85;;;9.13;;
48859;SDS011;34679;51.436;-2.518;2023-12-20T18:49:09;45.65;;;7.85;;
48859;SDS011;34679;51.436;-2.518;2023-12-20T18:51:34;54.88;;;8.75;;
48859;SDS011;34679;51.436;-2.518;2023-12-20T18:54:00;44.45;;;6.78;;
48859;SDS011;34679;51.436;-2.518;2023-12-20T18:56:27;47.30;;;7.38;;
48859;SDS011;34679;51.436;-2.518;2023-12-20T18:58:52;49.95;;;8.15;;
48859;SDS011;34679;51.436;-2.518;2023-12-20T19:01:18;47.03;;;7.15;;
48859;SDS011;34679;51.436;-2.518;2023-12-20T19:03:47;59.15;;;7.30;;
48859;SDS011;34679;51.436;-2.518;2023-12-20T19:06:13;46.30;;;7.53;;
48859;SDS011;34679;51.436;-2.518;2023-12-20T19:08:39;54.22;;;7.55;;
48859;SDS011;34679;51.436;-2.518;2023-12-20T19:11:06;46.08;;;6.15;;
48859;SDS011;34679;51.436;-2.518;2023-12-20T19:13:32;43.60;;;6.70;;
48859;SDS011;34679;51.436;-2.518;2023-12-20T19:15:58;45.35;;;7.22;;
48859;SDS011;34679;51.436;-2.518;2023-12-20T19:18:24;44.85;;;6.50;;
48859;SDS011;34679;51.436;-2.518;2023-12-20T19:20:49;50.13;;;7.28;;
48859;SDS011;34679;51.436;-2.518;2023-12-20T19:23:15;41.63;;;6.25;;
48859;SDS011;34679;51.436;-2.518;2023-12-20T19:25:42;40.95;;;6.05;;